createdAt,value
2019-06-01T00:00:48.925Z,19.00
2019-06-01T00:03:18.806Z,18.90
2019-06-01T00:05:48.768Z,19.00
2019-06-01T00:08:21.510Z,18.90
2019-06-01T00:10:52.750Z,18.90
2019-06-01T00:13:22.719Z,18.90
2019-06-01T00:15:52.534Z,19.00
2019-06-01T00:18:22.395Z,18.90
2019-06-01T00:20:52.750Z,19.00
2019-06-01T00:23:22.682Z,18.90
2019-06-01T00:25:52.922Z,19.00
2019-06-01T00:28:22.720Z,18.90
2019-06-01T00:30:55.344Z,18.90
2019-06-01T00:33:25.090Z,19.00
2019-06-01T00:35:56.115Z,19.00
2019-06-01T00:38:26.315Z,19.00
2019-06-01T00:40:56.065Z,18.90
2019-06-01T00:43:26.746Z,18.90
2019-06-01T00:45:56.527Z,18.90
2019-06-01T00:48:26.335Z,19.00
2019-06-01T00:50:56.059Z,19.00
2019-06-01T00:53:26.419Z,18.90
2019-06-01T00:55:56.151Z,18.90
2019-06-01T00:58:25.995Z,19.00
2019-06-01T01:00:56.462Z,18.90
2019-06-01T01:03:26.238Z,18.90
2019-06-01T01:05:56.058Z,18.90
2019-06-01T01:08:25.754Z,18.90
2019-06-01T01:10:58.435Z,18.90
2019-06-01T01:13:28.320Z,19.00
2019-06-01T01:15:58.062Z,18.90
2019-06-01T01:18:27.769Z,19.00
2019-06-01T01:20:58.654Z,18.90
2019-06-01T01:23:28.468Z,19.00
2019-06-01T01:25:58.206Z,18.90
2019-06-01T01:28:27.954Z,18.90
2019-06-01T01:31:12.398Z,18.90
2019-06-01T01:33:29.158Z,18.90
2019-06-01T01:35:58.893Z,18.90
2019-06-01T01:38:28.860Z,18.90
2019-06-01T01:40:59.475Z,18.90
2019-06-01T01:43:29.232Z,18.90
2019-06-01T01:45:59.051Z,18.90
2019-06-01T01:48:28.935Z,18.90
2019-06-01T01:50:58.676Z,18.90
2019-06-01T01:53:28.464Z,18.90
2019-06-01T01:55:59.044Z,18.90
2019-06-01T01:58:28.885Z,18.90
2019-06-01T02:01:00.163Z,19.00
2019-06-01T02:03:30.236Z,18.90
2019-06-01T02:06:00.047Z,18.90
2019-06-01T02:08:29.803Z,18.90
2019-06-01T02:10:59.631Z,18.90
2019-06-01T02:13:29.970Z,18.90
2019-06-01T02:16:00.563Z,18.90
2019-06-01T02:18:30.469Z,18.90
2019-06-01T02:21:00.526Z,18.90
2019-06-01T02:23:30.367Z,18.90
2019-06-01T02:26:01.191Z,19.00
2019-06-01T02:28:30.995Z,18.90
2019-06-01T02:31:02.119Z,18.90
2019-06-01T02:33:32.827Z,18.90
2019-06-01T02:36:03.492Z,18.90
2019-06-01T02:38:34.260Z,18.90
2019-06-01T02:41:05.657Z,18.90
2019-06-01T02:43:35.595Z,18.90
2019-06-01T02:46:07.417Z,18.90
2019-06-01T02:48:37.688Z,18.90
2019-06-01T02:51:07.402Z,18.90
2019-06-01T02:53:37.149Z,18.90
2019-06-01T02:56:06.940Z,18.90
2019-06-01T02:58:36.750Z,18.90
2019-06-01T03:01:57.044Z,18.90
2019-06-01T03:04:20.614Z,18.90
2019-06-01T03:06:50.323Z,18.90
2019-06-01T03:09:20.038Z,19.00
2019-06-01T03:11:49.779Z,18.90
2019-06-01T03:14:19.558Z,18.90
2019-06-01T03:16:49.270Z,18.90
2019-06-01T03:19:19.014Z,18.90
2019-06-01T03:21:50.806Z,18.90
2019-06-01T03:24:39.509Z,18.90
2019-06-01T03:27:10.976Z,18.90
2019-06-01T03:29:41.404Z,18.90
2019-06-01T03:32:31.511Z,18.90
2019-06-01T03:34:42.770Z,18.90
2019-06-01T03:37:13.393Z,18.90
2019-06-01T03:39:43.371Z,18.90
2019-06-01T03:42:13.071Z,18.90
2019-06-01T03:44:43.419Z,18.90
2019-06-01T03:47:13.126Z,18.90
2019-06-01T03:49:42.910Z,18.90
2019-06-01T03:52:24.653Z,18.90
2019-06-01T03:54:54.646Z,18.90
2019-06-01T03:57:25.110Z,18.90
2019-06-01T03:59:55.398Z,18.90
2019-06-01T04:02:32.855Z,18.90
2019-06-01T04:04:56.814Z,18.90
2019-06-01T04:07:26.686Z,18.90
2019-06-01T04:09:56.579Z,18.90
2019-06-01T04:12:26.418Z,18.90
2019-06-01T04:14:56.170Z,18.90
2019-06-01T04:17:25.859Z,18.90
2019-06-01T04:19:55.643Z,18.90
2019-06-01T04:22:25.420Z,18.90
2019-06-01T04:24:55.219Z,18.90
2019-06-01T04:27:24.959Z,18.90
2019-06-01T04:29:55.574Z,18.90
2019-06-01T04:32:25.265Z,18.90
2019-06-01T04:34:55.024Z,18.90
2019-06-01T04:37:24.973Z,18.90
2019-06-01T04:39:54.707Z,18.90
2019-06-01T04:42:24.462Z,18.90
2019-06-01T04:44:54.145Z,18.90
2019-06-01T04:47:23.938Z,18.90
2019-06-01T04:49:53.753Z,18.90
2019-06-01T04:52:23.561Z,18.90
2019-06-01T04:54:53.250Z,18.90
2019-06-01T04:57:23.027Z,18.90
2019-06-01T04:59:52.774Z,18.90
2019-06-01T05:02:22.519Z,18.90
2019-06-01T05:04:52.367Z,18.90
2019-06-01T05:07:22.184Z,18.90
2019-06-01T05:09:52.809Z,18.90
2019-06-01T05:12:22.691Z,18.90
2019-06-01T05:14:52.540Z,18.90
2019-06-01T05:17:22.454Z,18.90
2019-06-01T05:19:52.139Z,18.90
2019-06-01T05:22:22.335Z,18.90
2019-06-01T05:24:52.146Z,18.90
2019-06-01T05:27:21.904Z,18.90
2019-06-01T05:29:52.928Z,18.90
2019-06-01T05:32:22.728Z,18.90
2019-06-01T05:34:52.540Z,18.90
2019-06-01T05:37:22.338Z,18.90
2019-06-01T05:39:52.022Z,18.90
2019-06-01T05:42:21.874Z,18.90
2019-06-01T05:44:53.310Z,18.90
2019-06-01T05:47:23.033Z,18.90
2019-06-01T05:49:52.935Z,18.90
2019-06-01T05:52:25.082Z,18.90
2019-06-01T05:54:54.960Z,18.90
2019-06-01T05:57:24.830Z,18.90
2019-06-01T05:59:54.622Z,18.90
2019-06-01T06:02:24.525Z,18.90
2019-06-01T06:04:55.078Z,18.90
2019-06-01T06:07:24.842Z,18.90
2019-06-01T06:09:57.386Z,18.90
2019-06-01T06:12:28.050Z,18.90
2019-06-01T06:14:57.731Z,18.90
2019-06-01T06:17:28.758Z,18.90
2019-06-01T06:19:58.443Z,18.90
2019-06-01T06:22:28.340Z,18.90
2019-06-01T06:24:58.238Z,18.90
2019-06-01T06:27:27.970Z,18.90
2019-06-01T06:29:58.949Z,18.90
2019-06-01T06:32:29.251Z,18.90
2019-06-01T06:35:01.915Z,18.90
2019-06-01T06:37:31.709Z,18.90
2019-06-01T06:40:01.566Z,18.90
2019-06-01T06:42:31.360Z,18.90
2019-06-01T06:45:04.218Z,18.90
2019-06-01T06:47:33.975Z,18.90
2019-06-01T06:50:03.797Z,18.90
2019-06-01T06:52:33.666Z,18.90
2019-06-01T06:55:06.922Z,19.00
2019-06-01T06:57:37.597Z,18.90
2019-06-01T07:00:07.332Z,18.90
2019-06-01T07:02:37.119Z,18.90
2019-06-01T07:05:10.945Z,18.90
2019-06-01T07:07:43.659Z,18.90
2019-06-01T07:10:15.059Z,18.90
2019-06-01T07:12:49.224Z,19.00
2019-06-01T07:15:22.356Z,19.00
2019-06-01T07:17:54.507Z,19.00
2019-06-01T07:20:27.833Z,19.00
2019-06-01T07:22:59.158Z,19.00
2019-06-01T07:25:29.032Z,19.00
2019-06-01T07:27:58.795Z,19.00
2019-06-01T07:30:30.538Z,19.00
2019-06-01T07:33:03.602Z,19.00
2019-06-01T07:35:42.627Z,19.00
2019-06-01T07:38:12.147Z,19.00
2019-06-01T07:40:44.392Z,19.00
2019-06-01T07:43:15.010Z,19.10
2019-06-01T07:45:44.837Z,19.00
2019-06-01T07:48:20.853Z,19.00
2019-06-01T07:50:52.483Z,19.10
2019-06-01T07:53:25.598Z,19.10
2019-06-01T07:56:03.629Z,19.10
2019-06-01T07:58:34.520Z,19.10
2019-06-01T08:01:04.331Z,19.10
2019-06-01T08:03:35.227Z,19.10
2019-06-01T08:06:06.171Z,19.10
2019-06-01T08:08:38.575Z,19.10
2019-06-01T08:11:08.458Z,19.10
2019-06-01T08:13:42.075Z,19.10
2019-06-01T08:16:14.850Z,19.10
2019-06-01T08:18:52.986Z,19.10
2019-06-01T08:21:22.122Z,19.10
2019-06-01T08:23:54.398Z,19.10
2019-06-01T08:27:09.887Z,19.10
2019-06-01T08:31:01.991Z,19.10
2019-06-01T08:57:16.548Z,19.20
2019-06-01T08:58:06.841Z,19.20
2019-06-01T09:01:22.023Z,19.20
2019-06-01T09:04:51.967Z,19.20
2019-06-01T09:15:48.337Z,19.20
2019-06-01T09:23:51.832Z,19.20
2019-06-01T09:30:41.987Z,19.20
2019-06-01T09:33:23.130Z,19.20
2019-06-01T09:39:48.377Z,19.20
2019-06-01T09:42:30.753Z,19.20
2019-06-01T09:45:36.289Z,19.20
2019-06-01T09:48:18.247Z,19.20
2019-06-01T09:51:05.454Z,19.20
2019-06-01T09:53:38.079Z,19.20
2019-06-01T09:56:17.476Z,19.20
2019-06-01T09:58:47.780Z,19.20
2019-06-01T10:01:17.486Z,19.20
2019-06-01T10:03:47.202Z,19.20
2019-06-01T10:06:17.851Z,19.20
2019-06-01T10:08:47.626Z,19.20
2019-06-01T10:11:20.524Z,19.20
2019-06-01T10:13:50.391Z,19.30
2019-06-01T10:16:20.101Z,19.20
2019-06-01T10:18:49.954Z,19.30
2019-06-01T10:21:19.731Z,19.30
2019-06-01T10:23:50.041Z,19.30
2019-06-01T10:26:19.759Z,19.30
2019-06-01T10:28:49.570Z,19.30
2019-06-01T10:31:20.205Z,19.30
2019-06-01T10:33:51.461Z,19.30
2019-06-01T10:36:21.771Z,19.30
2019-06-01T10:38:51.658Z,19.30
2019-06-01T10:41:21.454Z,19.30
2019-06-01T10:43:51.314Z,19.30
2019-06-01T10:46:21.851Z,19.30
2019-06-01T10:48:53.114Z,19.30
2019-06-01T10:51:25.723Z,19.30
2019-06-01T10:53:55.548Z,19.30
2019-06-01T10:56:25.340Z,19.30
2019-06-01T10:59:00.320Z,19.30
2019-06-01T11:01:32.265Z,19.30
2019-06-01T11:04:00.562Z,19.30
2019-06-01T11:06:38.812Z,19.30
2019-06-01T11:09:01.878Z,19.30
2019-06-01T11:11:35.248Z,19.30
2019-06-01T11:14:05.036Z,19.30
2019-06-01T11:16:35.203Z,19.30
2019-06-01T11:19:04.979Z,19.30
2019-06-01T11:21:35.543Z,19.30
2019-06-01T11:24:06.202Z,19.30
2019-06-01T11:26:36.048Z,19.30
2019-06-01T11:29:05.812Z,19.30
2019-06-01T11:31:36.022Z,19.30
2019-06-01T11:34:05.990Z,19.30
2019-06-01T11:36:36.162Z,19.30
2019-06-01T11:39:07.736Z,19.30
2019-06-01T11:41:38.479Z,19.30
2019-06-01T11:44:10.844Z,19.30
2019-06-01T11:46:59.606Z,19.30
2019-06-01T11:49:32.024Z,19.30
2019-06-01T11:52:03.934Z,19.30
2019-06-01T11:54:35.075Z,19.30
2019-06-01T11:57:08.404Z,19.30
2019-06-01T11:59:39.325Z,19.30
2019-06-01T12:02:09.208Z,19.30
2019-06-01T12:04:39.794Z,19.30
2019-06-01T12:07:17.496Z,19.40
2019-06-01T12:09:41.909Z,19.40
2019-06-01T12:12:15.583Z,19.40
2019-06-01T12:14:46.666Z,19.40
2019-06-01T12:17:18.134Z,19.40
2019-06-01T12:19:47.952Z,19.40
2019-06-01T12:22:17.746Z,19.40
2019-06-01T12:24:47.542Z,19.40
2019-06-01T12:27:17.304Z,19.40
2019-06-01T12:29:52.447Z,19.40
2019-06-01T12:32:19.926Z,19.40
2019-06-01T12:34:50.134Z,19.40
2019-06-01T12:37:35.920Z,19.40
2019-06-01T12:39:54.286Z,19.40
2019-06-01T12:42:25.790Z,19.40
2019-06-01T12:44:55.527Z,19.40
2019-06-01T12:47:25.338Z,19.40
2019-06-01T12:49:57.299Z,19.40
2019-06-01T12:52:27.138Z,19.40
2019-06-01T12:54:56.855Z,19.40
2019-06-01T12:57:26.631Z,19.40
2019-06-01T12:59:56.561Z,19.40
2019-06-01T13:02:26.335Z,19.40
2019-06-01T13:04:56.294Z,19.40
2019-06-01T13:07:26.193Z,19.40
2019-06-01T13:09:55.923Z,19.40
2019-06-01T13:12:25.816Z,19.40
2019-06-01T13:14:56.087Z,19.40
2019-06-01T13:17:25.816Z,19.40
2019-06-01T13:19:56.295Z,19.40
2019-06-01T13:22:26.005Z,19.40
2019-06-01T13:24:56.621Z,19.40
2019-06-01T13:27:26.449Z,19.40
2019-06-01T13:29:56.162Z,19.40
2019-06-01T13:32:25.858Z,19.40
2019-06-01T13:34:55.665Z,19.40
2019-06-01T13:37:25.327Z,19.40
2019-06-01T13:39:58.084Z,19.40
2019-06-01T13:42:26.672Z,19.50
2019-06-01T13:44:56.466Z,19.50
2019-06-01T13:47:27.010Z,19.40
2019-06-01T13:49:56.807Z,19.50
2019-06-01T13:52:26.602Z,19.50
2019-06-01T13:54:58.772Z,19.50
2019-06-01T13:57:28.522Z,19.50
2019-06-01T13:59:59.127Z,19.50
2019-06-01T14:02:28.924Z,19.50
2019-06-01T14:04:58.760Z,19.50
2019-06-01T14:07:28.664Z,19.50
2019-06-01T14:09:58.578Z,19.50
2019-06-01T14:12:28.322Z,19.50
2019-06-01T14:14:58.089Z,19.50
2019-06-01T14:17:27.811Z,19.50
2019-06-01T14:19:58.092Z,19.50
2019-06-01T14:22:27.829Z,19.50
2019-06-01T14:25:11.985Z,19.50
2019-06-01T14:27:29.003Z,19.50
2019-06-01T14:29:58.845Z,19.50
2019-06-01T14:32:28.673Z,19.50
2019-06-01T14:34:58.439Z,19.50
2019-06-01T14:37:28.803Z,19.50
2019-06-01T14:39:58.773Z,19.50
2019-06-01T14:42:28.692Z,19.50
2019-06-01T14:44:58.844Z,19.50
2019-06-01T14:47:30.942Z,19.50
2019-06-01T14:50:00.684Z,19.50
2019-06-01T14:52:30.943Z,19.50
2019-06-01T14:55:01.756Z,19.50
2019-06-01T14:57:31.549Z,19.50
2019-06-01T15:00:01.372Z,19.50
2019-06-01T15:02:31.248Z,19.50
2019-06-01T15:05:01.067Z,19.50
2019-06-01T15:07:30.919Z,19.50
2019-06-01T15:10:00.698Z,19.50
2019-06-01T15:12:30.536Z,19.50
2019-06-01T15:15:01.890Z,19.50
2019-06-01T15:17:31.710Z,19.50
2019-06-01T15:20:05.247Z,19.50
2019-06-01T15:22:35.104Z,19.50
2019-06-01T15:25:05.244Z,19.50
2019-06-01T15:27:35.143Z,19.50
2019-06-01T15:30:05.394Z,19.50
2019-06-01T15:32:35.175Z,19.50
2019-06-01T15:35:05.291Z,19.50
2019-06-01T15:37:34.999Z,19.50
2019-06-01T15:40:05.426Z,19.50
2019-06-01T15:42:35.229Z,19.50
2019-06-01T15:45:05.111Z,19.60
2019-06-01T15:47:34.878Z,19.60
2019-06-01T15:50:04.902Z,19.60
2019-06-01T15:52:34.799Z,19.60
2019-06-01T15:55:04.967Z,19.60
2019-06-01T15:57:35.651Z,19.60
2019-06-01T16:00:05.687Z,19.60
2019-06-01T16:02:35.397Z,19.60
2019-06-01T16:05:05.599Z,19.60
2019-06-01T16:07:35.416Z,19.60
2019-06-01T16:10:08.054Z,19.60
2019-06-01T16:12:37.326Z,19.60
2019-06-01T16:15:07.307Z,19.60
2019-06-01T16:17:37.081Z,19.60
2019-06-01T16:20:07.912Z,19.60
2019-06-01T16:22:37.701Z,19.60
2019-06-01T16:25:08.435Z,19.60
2019-06-01T16:27:38.692Z,19.60
2019-06-01T16:30:09.164Z,19.60
2019-06-01T16:32:39.858Z,19.60
2019-06-01T16:35:09.812Z,19.60
2019-06-01T16:37:40.171Z,19.60
2019-06-01T16:40:10.901Z,19.60
2019-06-01T16:42:40.880Z,19.60
2019-06-01T16:45:10.693Z,19.60
2019-06-01T16:47:40.546Z,19.60
2019-06-01T16:50:11.203Z,19.60
2019-06-01T16:52:41.003Z,19.60
2019-06-01T16:55:10.727Z,19.60
2019-06-01T16:57:41.295Z,19.60
2019-06-01T17:00:11.035Z,19.60
2019-06-01T17:02:41.276Z,19.60
2019-06-01T17:05:10.926Z,19.60
2019-06-01T17:07:40.739Z,19.60
2019-06-01T17:10:24.281Z,19.60
2019-06-01T17:12:43.504Z,19.60
2019-06-01T17:15:13.526Z,19.60
2019-06-01T17:17:43.315Z,19.60
2019-06-01T17:20:37.815Z,19.60
2019-06-01T17:23:24.131Z,19.60
2019-06-01T17:25:39.839Z,19.60
2019-06-01T17:28:09.744Z,19.60
2019-06-01T17:30:39.435Z,19.60
2019-06-01T17:33:09.176Z,19.60
2019-06-01T17:35:38.903Z,19.60
2019-06-01T17:38:09.202Z,19.60
2019-06-01T17:40:42.796Z,19.60
2019-06-01T17:43:10.303Z,19.60
2019-06-01T17:45:40.079Z,19.60
2019-06-01T17:48:25.131Z,19.60
2019-06-01T17:50:41.330Z,19.60
2019-06-01T17:53:11.157Z,19.60
2019-06-01T17:55:40.966Z,19.60
2019-06-01T17:58:12.493Z,19.60
2019-06-01T18:00:42.182Z,19.60
2019-06-01T18:03:12.156Z,19.60
2019-06-01T18:05:42.087Z,19.60
2019-06-01T18:08:13.185Z,19.70
2019-06-01T18:10:53.172Z,19.70
2019-06-01T18:13:14.503Z,19.60
2019-06-01T18:15:44.299Z,19.70
2019-06-01T18:18:14.106Z,19.70
2019-06-01T18:20:44.462Z,19.70
2019-06-01T18:23:14.264Z,19.60
2019-06-01T18:25:44.047Z,19.70
2019-06-01T18:28:18.593Z,19.70
2019-06-01T18:30:45.479Z,19.70
2019-06-01T18:33:15.219Z,19.70
2019-06-01T18:35:45.132Z,19.70
2019-06-01T18:38:14.992Z,19.70
2019-06-01T18:40:44.820Z,19.70
2019-06-01T18:43:16.102Z,19.70
2019-06-01T18:45:46.227Z,19.70
2019-06-01T18:48:17.322Z,19.70
2019-06-01T18:50:47.231Z,19.70
2019-06-01T18:53:17.098Z,19.70
2019-06-01T18:55:46.803Z,19.70
2019-06-01T18:58:16.503Z,19.70
2019-06-01T19:00:47.166Z,19.70
2019-06-01T19:03:16.959Z,19.70
2019-06-01T19:05:46.714Z,19.70
2019-06-01T19:08:16.478Z,19.70
2019-06-01T19:10:46.893Z,19.70
2019-06-01T19:13:18.718Z,19.70
2019-06-01T19:15:48.537Z,19.70
2019-06-01T19:18:19.238Z,19.70
2019-06-01T19:20:49.034Z,19.70
2019-06-01T19:23:21.833Z,19.70
2019-06-01T19:25:50.235Z,19.70
2019-06-01T19:28:20.099Z,19.70
2019-06-01T19:30:49.828Z,19.70
2019-06-01T19:33:19.736Z,19.70
2019-06-01T19:35:49.555Z,19.70
2019-06-01T19:38:20.246Z,19.70
2019-06-01T19:40:49.986Z,19.70
2019-06-01T19:43:19.690Z,19.70
2019-06-01T19:45:49.448Z,19.70
2019-06-01T19:48:19.470Z,19.70
2019-06-01T19:50:49.326Z,19.70
2019-06-01T19:53:19.251Z,19.70
2019-06-01T19:55:49.088Z,19.70
2019-06-01T19:58:19.197Z,19.70
2019-06-01T20:00:49.071Z,19.70
2019-06-01T20:03:21.841Z,19.70
2019-06-01T20:05:50.923Z,19.70
2019-06-01T20:08:22.503Z,19.70
2019-06-01T20:10:52.476Z,19.70
2019-06-01T20:13:22.249Z,19.70
2019-06-01T20:15:52.066Z,19.70
2019-06-01T20:18:22.911Z,19.70
2019-06-01T20:20:52.836Z,19.70
2019-06-01T20:23:22.655Z,19.70
2019-06-01T20:25:52.443Z,19.70
2019-06-01T20:28:22.977Z,19.70
2019-06-01T20:30:52.707Z,19.70
2019-06-01T20:33:22.663Z,19.70
2019-06-01T20:35:52.741Z,19.70
2019-06-01T20:38:23.318Z,19.70
2019-06-01T20:40:54.392Z,19.70
2019-06-01T20:43:24.202Z,19.70
2019-06-01T20:45:56.816Z,19.70
2019-06-01T20:48:25.415Z,19.70
2019-06-01T20:50:55.142Z,19.70
2019-06-01T20:53:24.918Z,19.70
2019-06-01T20:55:54.695Z,19.70
2019-06-01T20:58:25.246Z,19.70
2019-06-01T21:00:54.969Z,19.70
2019-06-01T21:03:24.856Z,19.70
2019-06-01T21:05:54.617Z,19.70
2019-06-01T21:08:24.420Z,19.70
2019-06-01T21:10:59.250Z,19.70
2019-06-01T21:13:29.038Z,19.70
2019-06-01T21:15:58.806Z,19.70
2019-06-01T21:18:28.535Z,19.70
2019-06-01T21:21:00.615Z,19.70
2019-06-01T21:23:30.470Z,19.70
2019-06-01T21:26:00.275Z,19.70
2019-06-01T21:28:30.034Z,19.70
2019-06-01T21:30:59.853Z,19.70
2019-06-01T21:33:29.607Z,19.70
2019-06-01T21:35:59.302Z,19.70
2019-06-01T21:38:29.051Z,19.70
2019-06-01T21:40:58.942Z,19.70
2019-06-01T21:43:34.899Z,19.70
2019-06-01T21:46:00.075Z,19.70
2019-06-01T21:48:29.756Z,19.70
2019-06-01T21:50:59.445Z,19.70
2019-06-01T21:53:29.666Z,19.70
2019-06-01T21:56:00.386Z,19.70
2019-06-01T21:58:30.698Z,19.70
2019-06-01T22:01:00.697Z,19.70
2019-06-01T22:03:30.644Z,19.70
2019-06-01T22:06:01.410Z,19.70
2019-06-01T22:08:31.303Z,19.70
2019-06-01T22:11:01.122Z,19.70
2019-06-01T22:13:31.338Z,19.70
2019-06-01T22:16:01.048Z,19.70
2019-06-01T22:18:30.844Z,19.70
2019-06-01T22:21:00.704Z,19.70
2019-06-01T22:23:30.519Z,19.70
2019-06-01T22:26:00.374Z,19.70
2019-06-01T22:28:30.141Z,19.70
2019-06-01T22:30:59.966Z,19.70
2019-06-01T22:33:29.791Z,19.70
2019-06-01T22:36:00.273Z,19.70
2019-06-01T22:38:30.147Z,19.70
2019-06-01T22:40:59.921Z,19.70
2019-06-01T22:43:42.990Z,19.70
2019-06-01T22:46:01.086Z,19.70
2019-06-01T22:48:30.851Z,19.70
2019-06-01T22:51:00.543Z,19.70
2019-06-01T22:53:30.310Z,19.70
2019-06-01T22:55:59.992Z,19.70
2019-06-01T22:58:30.178Z,19.70
2019-06-01T23:01:01.167Z,19.70
2019-06-01T23:03:32.050Z,19.70
2019-06-01T23:06:02.138Z,19.70
2019-06-01T23:08:32.023Z,19.70
2019-06-01T23:11:01.678Z,19.70
2019-06-01T23:13:32.425Z,19.70
2019-06-01T23:16:02.414Z,19.70
2019-06-01T23:18:32.326Z,19.70
2019-06-01T23:21:02.178Z,19.70
2019-06-01T23:23:32.308Z,19.70
2019-06-01T23:26:02.182Z,19.70
2019-06-01T23:28:32.751Z,19.70
2019-06-01T23:31:02.437Z,19.70
2019-06-01T23:33:33.077Z,19.70
2019-06-01T23:36:02.962Z,19.70
2019-06-01T23:38:32.912Z,19.70
2019-06-01T23:41:02.715Z,19.70
2019-06-01T23:43:32.969Z,19.70
2019-06-01T23:46:02.896Z,19.70
2019-06-01T23:48:34.103Z,19.70
2019-06-01T23:51:04.088Z,19.70
2019-06-01T23:53:33.963Z,19.70
2019-06-01T23:56:03.661Z,19.70
2019-06-01T23:58:34.703Z,19.70
